Vilas, Texas
Current Conditions -  °F | °C
As of 8:58 AM on Monday 22 Dec 2014 (Local Time) from KGRK Reporting Station
Clear Clear  
Wind Chill: 57°   Ceiling: Unl
Heat Index: 57°   Visibility: 9mi
Dew Point: 53°   Wind: 14mph
Humidity: 87%   Direction: 230°SW
Pressure: 29.69"   Gusts: 21mph
Location:  30.8644°N, 97.3623°W
Report Text: KGRK 221458Z AUTO 23012G18KT 9SM CLR 14/12 A2969 RMK AO2 SLP052 T01380116 53003
Loading
Personal Weather Stations






























Interactive Weather Map New forecast layout! Learn more

10-Day Weather Forecast

Advertisements
Track Severe Weather on mobile